Lunamar — 5BNV2 — position and weather

sailwx.info

Track history (hours):
 
Tides and Currents Weather Stations Pressure Air Temp Water Temp Dewpoint Dewpoint Depression Visibility Wind Speed Wind Dir Waves Ship Positions

Lunamar

Last reported at 2014-Nov-01 05:31 UTC. Time now 2014-Nov-01 06:19 UTC.
Position N 54°22' E 010°08'.

Length 90 m; draft 4.9 m.

Type: Cargo ship. MMSI: 212762000.

Date/timePositionNaut miles runAvg speedWind from/ knotsBaromVisibWave heightAir tempDewpointWater temp
2014-Nov-01 05:31N 54°22' E 010°08'0 0.1
2014-Nov-01 04:33N 54°22' E 010°08'1 1.3
2014-Nov-01 03:33N 54°22' E 010°10'0 0.4
2014-Nov-01 02:33N 54°22' E 010°11'9 8.7
2014-Nov-01 01:33N 54°30' E 010°18'1110.7
2014-Nov-01 00:30N 54°34' E 010°36'1010.7
2014-Oct-31 23:33N 54°36' E 010°53'1211.0
2014-Oct-31 22:30N 54°35' E 011°13'129 9.8
2014-Oct-31 09:17N 55°27' E 014°39'14336.3
2014-Oct-31 05:21N 57°14' E 017°30'0 0.0
2014-Oct-31 03:28N 57°14' E 017°30'0 0.0
2014-Oct-31 02:07N 57°14' E 017°30'0 0.0
2014-Oct-31 01:33N 57°14' E 017°30'7 6.9
2014-Oct-31 00:29N 57°21' E 017°36'7 7.6
2014-Oct-30 23:30N 57°14' E 017°30'0 0.0
2014-Oct-30 22:24N 57°14' E 017°30'4 4.1
2014-Oct-30 21:31N 57°17' E 017°33'1413.0
2014-Oct-30 20:28N 57°05' E 017°23'2325.0
2014-Oct-30 19:34N 57°26' E 017°39'2 2.4
2014-Oct-30 18:33N 57°24' E 017°37'  
Track history (hours):
 
Tides and Currents Weather Stations Pressure Air Temp Water Temp Dewpoint Dewpoint Depression Visibility Wind Speed Wind Dir Waves Ship Positions

Lunamar

Last reported at 2014-Nov-01 05:31 UTC. Time now 2014-Nov-01 06:19 UTC.
Position N 54°22' E 010°08'.

Length 90 m; draft 4.9 m.

Type: Cargo ship. MMSI: 212762000.

Date/timePositionNaut miles runAvg speedWind from/ knotsBaromVisibWave heightAir tempDewpointWater temp
2014-Nov-01 05:31N 54°22' E 010°08'0 0.1
2014-Nov-01 04:33N 54°22' E 010°08'1 1.3
2014-Nov-01 03:33N 54°22' E 010°10'0 0.4
2014-Nov-01 02:33N 54°22' E 010°11'9 8.7
2014-Nov-01 01:33N 54°30' E 010°18'1110.7
2014-Nov-01 00:30N 54°34' E 010°36'1010.7
2014-Oct-31 23:33N 54°36' E 010°53'1211.0
2014-Oct-31 22:30N 54°35' E 011°13'129 9.8
2014-Oct-31 09:17N 55°27' E 014°39'14336.3
2014-Oct-31 05:21N 57°14' E 017°30'0 0.0
2014-Oct-31 03:28N 57°14' E 017°30'0 0.0
2014-Oct-31 02:07N 57°14' E 017°30'0 0.0
2014-Oct-31 01:33N 57°14' E 017°30'7 6.9
2014-Oct-31 00:29N 57°21' E 017°36'7 7.6
2014-Oct-30 23:30N 57°14' E 017°30'0 0.0
2014-Oct-30 22:24N 57°14' E 017°30'4 4.1
2014-Oct-30 21:31N 57°17' E 017°33'1413.0
2014-Oct-30 20:28N 57°05' E 017°23'2325.0
2014-Oct-30 19:34N 57°26' E 017°39'2 2.4
2014-Oct-30 18:33N 57°24' E 017°37'  

Dump ship's entire track history